sensor_id;sensor_type;location;lat;lon;timestamp;P1;durP1;ratioP1;P2;durP2;ratioP2
33501;SDS011;22396;51.070;4.974;2022-12-18T00:00:29;90.93;;;29.63;;
33501;SDS011;22396;51.070;4.974;2022-12-18T00:02:55;101.83;;;32.23;;
33501;SDS011;22396;51.070;4.974;2022-12-18T00:05:20;98.93;;;31.33;;
33501;SDS011;22396;51.070;4.974;2022-12-18T00:07:45;95.23;;;29.40;;
33501;SDS011;22396;51.070;4.974;2022-12-18T00:10:10;82.73;;;27.73;;
33501;SDS011;22396;51.070;4.974;2022-12-18T00:12:36;78.90;;;26.40;;
33501;SDS011;22396;51.070;4.974;2022-12-18T00:15:01;85.20;;;28.80;;
33501;SDS011;22396;51.070;4.974;2022-12-18T00:17:26;90.70;;;28.70;;
33501;SDS011;22396;51.070;4.974;2022-12-18T00:19:51;84.87;;;29.37;;
33501;SDS011;22396;51.070;4.974;2022-12-18T00:22:16;96.30;;;29.47;;
33501;SDS011;22396;51.070;4.974;2022-12-18T00:24:42;94.43;;;30.87;;
33501;SDS011;22396;51.070;4.974;2022-12-18T00:27:07;105.37;;;31.93;;
33501;SDS011;22396;51.070;4.974;2022-12-18T00:29:32;106.43;;;32.73;;
33501;SDS011;22396;51.070;4.974;2022-12-18T00:31:57;96.80;;;30.20;;
33501;SDS011;22396;51.070;4.974;2022-12-18T00:34:23;91.23;;;31.07;;
33501;SDS011;22396;51.070;4.974;2022-12-18T00:36:48;92.53;;;28.77;;
33501;SDS011;22396;51.070;4.974;2022-12-18T00:39:13;77.20;;;24.70;;
33501;SDS011;22396;51.070;4.974;2022-12-18T00:41:39;81.93;;;26.77;;
33501;SDS011;22396;51.070;4.974;2022-12-18T00:44:22;89.23;;;26.67;;
33501;SDS011;22396;51.070;4.974;2022-12-18T00:46:48;82.80;;;27.97;;
33501;SDS011;22396;51.070;4.974;2022-12-18T00:49:14;72.00;;;23.50;;
33501;SDS011;22396;51.070;4.974;2022-12-18T00:51:39;81.23;;;25.93;;
33501;SDS011;22396;51.070;4.974;2022-12-18T00:54:04;76.23;;;24.00;;
33501;SDS011;22396;51.070;4.974;2022-12-18T00:56:30;73.67;;;23.77;;
33501;SDS011;22396;51.070;4.974;2022-12-18T00:58:55;84.67;;;26.57;;
33501;SDS011;22396;51.070;4.974;2022-12-18T01:01:20;74.93;;;25.57;;
33501;SDS011;22396;51.070;4.974;2022-12-18T01:03:46;81.30;;;25.60;;
33501;SDS011;22396;51.070;4.974;2022-12-18T01:06:12;93.00;;;30.97;;
33501;SDS011;22396;51.070;4.974;2022-12-18T01:08:38;90.10;;;30.33;;
33501;SDS011;22396;51.070;4.974;2022-12-18T01:11:07;84.43;;;26.83;;
33501;SDS011;22396;51.070;4.974;2022-12-18T01:13:33;80.57;;;25.73;;
33501;SDS011;22396;51.070;4.974;2022-12-18T01:15:58;83.63;;;25.63;;
33501;SDS011;22396;51.070;4.974;2022-12-18T01:18:23;77.63;;;25.73;;
33501;SDS011;22396;51.070;4.974;2022-12-18T01:20:49;82.87;;;25.83;;
33501;SDS011;22396;51.070;4.974;2022-12-18T01:23:14;89.47;;;26.43;;
33501;SDS011;22396;51.070;4.974;2022-12-18T01:25:39;78.63;;;25.13;;
33501;SDS011;22396;51.070;4.974;2022-12-18T01:28:04;82.13;;;25.67;;
33501;SDS011;22396;51.070;4.974;2022-12-18T01:30:29;83.33;;;24.80;;
33501;SDS011;22396;51.070;4.974;2022-12-18T01:32:55;83.40;;;25.10;;
33501;SDS011;22396;51.070;4.974;2022-12-18T01:35:20;72.50;;;22.57;;
33501;SDS011;22396;51.070;4.974;2022-12-18T01:37:45;75.57;;;25.53;;
33501;SDS011;22396;51.070;4.974;2022-12-18T01:40:10;68.33;;;23.43;;
33501;SDS011;22396;51.070;4.974;2022-12-18T01:42:35;75.83;;;21.97;;
33501;SDS011;22396;51.070;4.974;2022-12-18T01:47:45;63.33;;;20.83;;
33501;SDS011;22396;51.070;4.974;2022-12-18T01:50:15;66.53;;;22.53;;
33501;SDS011;22396;51.070;4.974;2022-12-18T01:52:42;73.07;;;24.67;;
33501;SDS011;22396;51.070;4.974;2022-12-18T01:55:08;64.60;;;22.83;;
33501;SDS011;22396;51.070;4.974;2022-12-18T01:57:34;71.67;;;22.83;;
33501;SDS011;22396;51.070;4.974;2022-12-18T02:00:01;67.40;;;23.20;;
33501;SDS011;22396;51.070;4.974;2022-12-18T02:02:30;78.37;;;25.43;;
33501;SDS011;22396;51.070;4.974;2022-12-18T02:04:55;74.07;;;24.20;;
33501;SDS011;22396;51.070;4.974;2022-12-18T02:07:24;68.10;;;21.60;;
33501;SDS011;22396;51.070;4.974;2022-12-18T02:10:02;73.93;;;23.07;;
33501;SDS011;22396;51.070;4.974;2022-12-18T02:12:47;69.40;;;22.87;;
33501;SDS011;22396;51.070;4.974;2022-12-18T02:15:18;68.23;;;23.33;;
33501;SDS011;22396;51.070;4.974;2022-12-18T02:20:23;65.63;;;21.40;;
33501;SDS011;22396;51.070;4.974;2022-12-18T02:27:59;62.47;;;21.50;;
33501;SDS011;22396;51.070;4.974;2022-12-18T02:30:25;70.83;;;23.57;;
33501;SDS011;22396;51.070;4.974;2022-12-18T02:32:52;61.93;;;21.30;;
33501;SDS011;22396;51.070;4.974;2022-12-18T02:35:20;58.23;;;21.87;;
33501;SDS011;22396;51.070;4.974;2022-12-18T02:37:46;61.57;;;22.30;;
33501;SDS011;22396;51.070;4.974;2022-12-18T02:40:11;69.53;;;20.80;;
33501;SDS011;22396;51.070;4.974;2022-12-18T02:42:38;61.90;;;20.80;;
33501;SDS011;22396;51.070;4.974;2022-12-18T02:45:03;67.83;;;20.97;;
33501;SDS011;22396;51.070;4.974;2022-12-18T02:47:29;55.53;;;20.23;;
33501;SDS011;22396;51.070;4.974;2022-12-18T02:58:15;65.63;;;21.53;;
33501;SDS011;22396;51.070;4.974;2022-12-18T03:00:26;68.23;;;21.43;;
33501;SDS011;22396;51.070;4.974;2022-12-18T03:02:55;58.10;;;18.83;;
33501;SDS011;22396;51.070;4.974;2022-12-18T03:05:24;60.43;;;21.43;;
33501;SDS011;22396;51.070;4.974;2022-12-18T03:07:55;57.47;;;21.00;;
33501;SDS011;22396;51.070;4.974;2022-12-18T03:10:23;61.63;;;19.53;;
33501;SDS011;22396;51.070;4.974;2022-12-18T03:12:51;90.40;;;27.37;;
33501;SDS011;22396;51.070;4.974;2022-12-18T03:15:24;70.50;;;24.27;;
33501;SDS011;22396;51.070;4.974;2022-12-18T03:17:57;70.30;;;23.00;;
33501;SDS011;22396;51.070;4.974;2022-12-18T03:20:24;72.27;;;25.83;;
33501;SDS011;22396;51.070;4.974;2022-12-18T03:22:51;62.00;;;21.93;;
33501;SDS011;22396;51.070;4.974;2022-12-18T03:25:17;62.97;;;21.33;;
33501;SDS011;22396;51.070;4.974;2022-12-18T03:27:46;75.53;;;24.07;;
33501;SDS011;22396;51.070;4.974;2022-12-18T03:30:14;76.63;;;27.63;;
33501;SDS011;22396;51.070;4.974;2022-12-18T03:35:16;74.57;;;24.17;;
33501;SDS011;22396;51.070;4.974;2022-12-18T03:37:43;66.13;;;23.60;;
33501;SDS011;22396;51.070;4.974;2022-12-18T03:40:08;53.90;;;20.80;;
33501;SDS011;22396;51.070;4.974;2022-12-18T03:52:23;52.67;;;18.73;;
33501;SDS011;22396;51.070;4.974;2022-12-18T03:54:50;45.90;;;17.30;;
33501;SDS011;22396;51.070;4.974;2022-12-18T03:57:17;49.70;;;17.27;;
33501;SDS011;22396;51.070;4.974;2022-12-18T03:59:43;46.10;;;16.40;;
33501;SDS011;22396;51.070;4.974;2022-12-18T04:02:10;48.23;;;17.63;;
33501;SDS011;22396;51.070;4.974;2022-12-18T04:04:35;49.40;;;16.57;;
33501;SDS011;22396;51.070;4.974;2022-12-18T04:07:02;49.87;;;17.00;;
33501;SDS011;22396;51.070;4.974;2022-12-18T04:09:28;57.73;;;20.03;;
33501;SDS011;22396;51.070;4.974;2022-12-18T04:11:55;55.37;;;19.17;;
33501;SDS011;22396;51.070;4.974;2022-12-18T04:14:20;63.47;;;19.83;;
33501;SDS011;22396;51.070;4.974;2022-12-18T04:16:45;58.33;;;18.57;;
33501;SDS011;22396;51.070;4.974;2022-12-18T04:19:10;46.07;;;17.13;;
33501;SDS011;22396;51.070;4.974;2022-12-18T04:21:35;46.30;;;17.07;;
33501;SDS011;22396;51.070;4.974;2022-12-18T04:24:00;44.20;;;15.40;;
33501;SDS011;22396;51.070;4.974;2022-12-18T04:26:26;49.07;;;15.07;;
33501;SDS011;22396;51.070;4.974;2022-12-18T04:28:51;46.20;;;15.53;;
33501;SDS011;22396;51.070;4.974;2022-12-18T04:31:16;49.47;;;17.10;;
33501;SDS011;22396;51.070;4.974;2022-12-18T04:33:41;50.50;;;16.83;;
33501;SDS011;22396;51.070;4.974;2022-12-18T04:36:07;49.30;;;16.77;;
33501;SDS011;22396;51.070;4.974;2022-12-18T04:38:32;49.97;;;15.10;;
33501;SDS011;22396;51.070;4.974;2022-12-18T04:40:57;61.27;;;18.17;;
33501;SDS011;22396;51.070;4.974;2022-12-18T04:43:22;56.87;;;17.20;;
33501;SDS011;22396;51.070;4.974;2022-12-18T04:45:48;49.43;;;16.37;;
33501;SDS011;22396;51.070;4.974;2022-12-18T04:48:13;50.10;;;17.83;;
33501;SDS011;22396;51.070;4.974;2022-12-18T04:50:38;55.30;;;17.77;;
33501;SDS011;22396;51.070;4.974;2022-12-18T04:53:03;45.60;;;17.30;;
33501;SDS011;22396;51.070;4.974;2022-12-18T04:55:29;49.53;;;16.90;;
33501;SDS011;22396;51.070;4.974;2022-12-18T04:57:54;55.93;;;18.17;;
33501;SDS011;22396;51.070;4.974;2022-12-18T05:00:19;58.67;;;20.03;;
33501;SDS011;22396;51.070;4.974;2022-12-18T05:02:44;61.07;;;19.70;;
33501;SDS011;22396;51.070;4.974;2022-12-18T05:05:10;68.13;;;18.53;;
33501;SDS011;22396;51.070;4.974;2022-12-18T05:07:35;57.20;;;17.57;;
33501;SDS011;22396;51.070;4.974;2022-12-18T05:10:00;56.10;;;18.63;;
33501;SDS011;22396;51.070;4.974;2022-12-18T05:12:25;58.87;;;17.90;;
33501;SDS011;22396;51.070;4.974;2022-12-18T05:14:51;50.50;;;17.17;;
33501;SDS011;22396;51.070;4.974;2022-12-18T05:17:16;45.27;;;16.37;;
33501;SDS011;22396;51.070;4.974;2022-12-18T05:19:41;56.70;;;18.40;;
33501;SDS011;22396;51.070;4.974;2022-12-18T05:22:06;57.80;;;20.37;;
33501;SDS011;22396;51.070;4.974;2022-12-18T05:24:31;50.47;;;16.17;;
33501;SDS011;22396;51.070;4.974;2022-12-18T05:26:57;46.80;;;16.53;;
33501;SDS011;22396;51.070;4.974;2022-12-18T05:29:22;53.50;;;17.93;;
33501;SDS011;22396;51.070;4.974;2022-12-18T05:31:47;49.97;;;17.47;;
33501;SDS011;22396;51.070;4.974;2022-12-18T05:34:12;51.57;;;17.43;;
33501;SDS011;22396;51.070;4.974;2022-12-18T05:36:37;44.77;;;14.97;;
33501;SDS011;22396;51.070;4.974;2022-12-18T05:39:03;50.77;;;17.73;;
33501;SDS011;22396;51.070;4.974;2022-12-18T05:41:28;43.40;;;15.93;;
33501;SDS011;22396;51.070;4.974;2022-12-18T05:43:53;44.23;;;15.10;;
33501;SDS011;22396;51.070;4.974;2022-12-18T05:46:19;51.30;;;17.47;;
33501;SDS011;22396;51.070;4.974;2022-12-18T05:48:44;52.10;;;19.47;;
33501;SDS011;22396;51.070;4.974;2022-12-18T05:51:11;70.73;;;21.53;;
33501;SDS011;22396;51.070;4.974;2022-12-18T05:53:37;87.67;;;23.93;;
33501;SDS011;22396;51.070;4.974;2022-12-18T05:56:03;73.20;;;21.30;;
33501;SDS011;22396;51.070;4.974;2022-12-18T05:58:28;66.17;;;20.27;;
33501;SDS011;22396;51.070;4.974;2022-12-18T06:00:54;62.53;;;20.63;;
33501;SDS011;22396;51.070;4.974;2022-12-18T06:03:19;68.57;;;20.73;;
33501;SDS011;22396;51.070;4.974;2022-12-18T06:05:45;64.47;;;21.50;;
33501;SDS011;22396;51.070;4.974;2022-12-18T06:08:11;68.43;;;20.30;;
33501;SDS011;22396;51.070;4.974;2022-12-18T06:10:36;61.93;;;18.63;;
33501;SDS011;22396;51.070;4.974;2022-12-18T06:13:02;49.37;;;16.93;;
33501;SDS011;22396;51.070;4.974;2022-12-18T06:15:27;50.10;;;17.97;;
33501;SDS011;22396;51.070;4.974;2022-12-18T06:17:52;47.17;;;17.60;;
33501;SDS011;22396;51.070;4.974;2022-12-18T06:20:17;50.30;;;19.20;;
33501;SDS011;22396;51.070;4.974;2022-12-18T06:22:43;49.30;;;17.73;;
33501;SDS011;22396;51.070;4.974;2022-12-18T06:25:08;43.27;;;16.30;;
33501;SDS011;22396;51.070;4.974;2022-12-18T06:27:34;49.70;;;17.00;;
33501;SDS011;22396;51.070;4.974;2022-12-18T06:30:00;43.00;;;16.80;;
33501;SDS011;22396;51.070;4.974;2022-12-18T06:32:25;51.90;;;16.73;;
33501;SDS011;22396;51.070;4.974;2022-12-18T06:34:50;40.27;;;14.07;;
33501;SDS011;22396;51.070;4.974;2022-12-18T06:37:16;43.53;;;15.70;;
33501;SDS011;22396;51.070;4.974;2022-12-18T06:39:41;42.30;;;15.63;;
33501;SDS011;22396;51.070;4.974;2022-12-18T06:42:06;45.13;;;14.60;;
33501;SDS011;22396;51.070;4.974;2022-12-18T06:44:31;38.03;;;13.67;;
33501;SDS011;22396;51.070;4.974;2022-12-18T06:46:56;48.00;;;16.00;;
33501;SDS011;22396;51.070;4.974;2022-12-18T06:49:21;39.60;;;14.77;;
33501;SDS011;22396;51.070;4.974;2022-12-18T06:51:47;45.70;;;14.57;;
33501;SDS011;22396;51.070;4.974;2022-12-18T06:54:12;34.10;;;13.73;;
33501;SDS011;22396;51.070;4.974;2022-12-18T06:56:37;35.67;;;12.93;;
33501;SDS011;22396;51.070;4.974;2022-12-18T06:59:02;36.57;;;14.03;;
33501;SDS011;22396;51.070;4.974;2022-12-18T07:01:28;38.20;;;12.03;;
33501;SDS011;22396;51.070;4.974;2022-12-18T07:03:53;38.13;;;12.43;;
33501;SDS011;22396;51.070;4.974;2022-12-18T07:06:19;36.50;;;12.90;;
33501;SDS011;22396;51.070;4.974;2022-12-18T07:08:45;35.87;;;13.33;;
33501;SDS011;22396;51.070;4.974;2022-12-18T07:11:11;34.07;;;13.43;;
33501;SDS011;22396;51.070;4.974;2022-12-18T07:13:37;37.27;;;13.17;;
33501;SDS011;22396;51.070;4.974;2022-12-18T07:18:30;33.33;;;13.30;;
33501;SDS011;22396;51.070;4.974;2022-12-18T07:20:55;31.07;;;13.40;;
33501;SDS011;22396;51.070;4.974;2022-12-18T07:23:21;36.03;;;12.57;;
33501;SDS011;22396;51.070;4.974;2022-12-18T07:25:46;38.00;;;13.13;;
33501;SDS011;22396;51.070;4.974;2022-12-18T07:28:11;41.17;;;14.93;;
33501;SDS011;22396;51.070;4.974;2022-12-18T07:30:37;39.93;;;14.33;;
33501;SDS011;22396;51.070;4.974;2022-12-18T07:33:03;51.67;;;17.77;;
33501;SDS011;22396;51.070;4.974;2022-12-18T07:35:28;48.30;;;17.57;;
33501;SDS011;22396;51.070;4.974;2022-12-18T07:37:53;52.73;;;17.83;;
33501;SDS011;22396;51.070;4.974;2022-12-18T07:40:18;57.63;;;19.83;;
33501;SDS011;22396;51.070;4.974;2022-12-18T07:42:44;55.67;;;19.57;;
33501;SDS011;22396;51.070;4.974;2022-12-18T07:45:09;42.13;;;15.23;;
33501;SDS011;22396;51.070;4.974;2022-12-18T07:47:34;36.10;;;13.57;;
33501;SDS011;22396;51.070;4.974;2022-12-18T07:50:01;35.13;;;12.43;;
33501;SDS011;22396;51.070;4.974;2022-12-18T07:52:26;31.70;;;12.20;;
33501;SDS011;22396;51.070;4.974;2022-12-18T07:54:51;32.67;;;11.63;;
33501;SDS011;22396;51.070;4.974;2022-12-18T07:57:16;35.53;;;13.70;;
33501;SDS011;22396;51.070;4.974;2022-12-18T07:59:42;35.87;;;12.67;;
33501;SDS011;22396;51.070;4.974;2022-12-18T08:02:07;36.20;;;14.27;;
33501;SDS011;22396;51.070;4.974;2022-12-18T08:04:32;38.17;;;13.37;;
33501;SDS011;22396;51.070;4.974;2022-12-18T08:06:57;32.77;;;12.60;;
33501;SDS011;22396;51.070;4.974;2022-12-18T08:09:23;37.50;;;13.40;;
33501;SDS011;22396;51.070;4.974;2022-12-18T08:11:48;39.73;;;14.03;;
33501;SDS011;22396;51.070;4.974;2022-12-18T08:14:13;35.67;;;14.47;;
33501;SDS011;22396;51.070;4.974;2022-12-18T08:16:39;42.47;;;15.10;;
33501;SDS011;22396;51.070;4.974;2022-12-18T08:19:04;40.50;;;15.33;;
33501;SDS011;22396;51.070;4.974;2022-12-18T08:21:30;42.43;;;16.20;;
33501;SDS011;22396;51.070;4.974;2022-12-18T08:23:56;35.07;;;15.27;;
33501;SDS011;22396;51.070;4.974;2022-12-18T08:26:22;39.03;;;15.07;;
33501;SDS011;22396;51.070;4.974;2022-12-18T08:28:48;40.03;;;15.27;;
33501;SDS011;22396;51.070;4.974;2022-12-18T08:31:14;44.13;;;16.50;;
33501;SDS011;22396;51.070;4.974;2022-12-18T08:33:40;44.40;;;16.37;;
33501;SDS011;22396;51.070;4.974;2022-12-18T08:36:06;31.27;;;12.50;;
33501;SDS011;22396;51.070;4.974;2022-12-18T08:38:31;28.97;;;10.53;;
33501;SDS011;22396;51.070;4.974;2022-12-18T08:41:00;33.17;;;11.20;;
33501;SDS011;22396;51.070;4.974;2022-12-18T08:43:26;31.23;;;10.53;;
33501;SDS011;22396;51.070;4.974;2022-12-18T08:46:10;30.30;;;11.33;;
33501;SDS011;22396;51.070;4.974;2022-12-18T08:48:35;25.67;;;11.17;;
33501;SDS011;22396;51.070;4.974;2022-12-18T08:51:00;30.03;;;11.00;;
33501;SDS011;22396;51.070;4.974;2022-12-18T08:53:26;31.53;;;10.70;;
33501;SDS011;22396;51.070;4.974;2022-12-18T08:55:51;26.80;;;10.50;;
33501;SDS011;22396;51.070;4.974;2022-12-18T08:58:17;27.83;;;10.97;;
33501;SDS011;22396;51.070;4.974;2022-12-18T09:00:42;31.83;;;11.70;;
33501;SDS011;22396;51.070;4.974;2022-12-18T09:03:14;36.10;;;11.60;;
33501;SDS011;22396;51.070;4.974;2022-12-18T09:05:39;26.33;;;10.60;;
33501;SDS011;22396;51.070;4.974;2022-12-18T09:08:05;31.73;;;11.20;;
33501;SDS011;22396;51.070;4.974;2022-12-18T09:10:30;32.70;;;12.17;;
33501;SDS011;22396;51.070;4.974;2022-12-18T09:12:55;30.33;;;11.47;;
33501;SDS011;22396;51.070;4.974;2022-12-18T09:15:21;27.27;;;10.43;;
33501;SDS011;22396;51.070;4.974;2022-12-18T09:17:46;27.37;;;11.83;;
33501;SDS011;22396;51.070;4.974;2022-12-18T09:20:13;32.03;;;12.53;;
33501;SDS011;22396;51.070;4.974;2022-12-18T09:22:38;30.03;;;12.07;;
33501;SDS011;22396;51.070;4.974;2022-12-18T09:25:04;37.30;;;13.10;;
33501;SDS011;22396;51.070;4.974;2022-12-18T09:27:32;37.93;;;13.07;;
33501;SDS011;22396;51.070;4.974;2022-12-18T09:29:57;36.43;;;12.33;;
33501;SDS011;22396;51.070;4.974;2022-12-18T09:32:22;33.60;;;12.27;;
33501;SDS011;22396;51.070;4.974;2022-12-18T09:34:48;31.30;;;11.70;;
33501;SDS011;22396;51.070;4.974;2022-12-18T09:37:13;27.30;;;11.07;;
33501;SDS011;22396;51.070;4.974;2022-12-18T09:39:38;25.17;;;10.17;;
33501;SDS011;22396;51.070;4.974;2022-12-18T09:42:03;28.77;;;10.30;;
33501;SDS011;22396;51.070;4.974;2022-12-18T09:49:20;31.57;;;11.00;;
33501;SDS011;22396;51.070;4.974;2022-12-18T09:51:48;37.50;;;13.70;;
33501;SDS011;22396;51.070;4.974;2022-12-18T09:54:16;32.83;;;12.93;;
33501;SDS011;22396;51.070;4.974;2022-12-18T09:56:43;34.43;;;12.80;;
33501;SDS011;22396;51.070;4.974;2022-12-18T09:59:18;31.17;;;11.93;;
33501;SDS011;22396;51.070;4.974;2022-12-18T10:01:43;36.70;;;12.50;;
33501;SDS011;22396;51.070;4.974;2022-12-18T10:04:09;36.63;;;13.13;;
33501;SDS011;22396;51.070;4.974;2022-12-18T10:06:39;33.03;;;12.47;;
33501;SDS011;22396;51.070;4.974;2022-12-18T10:09:12;34.88;;;13.65;;
33501;SDS011;22396;51.070;4.974;2022-12-18T10:11:43;40.47;;;13.27;;
33501;SDS011;22396;51.070;4.974;2022-12-18T10:14:17;28.27;;;10.97;;
33501;SDS011;22396;51.070;4.974;2022-12-18T10:19:33;29.73;;;11.67;;
33501;SDS011;22396;51.070;4.974;2022-12-18T10:22:03;28.37;;;10.93;;
33501;SDS011;22396;51.070;4.974;2022-12-18T10:29:55;24.67;;;8.90;;
33501;SDS011;22396;51.070;4.974;2022-12-18T10:32:30;27.63;;;10.57;;
33501;SDS011;22396;51.070;4.974;2022-12-18T10:34:56;29.40;;;9.80;;
33501;SDS011;22396;51.070;4.974;2022-12-18T10:37:25;27.43;;;10.27;;
33501;SDS011;22396;51.070;4.974;2022-12-18T10:42:34;21.83;;;9.53;;
33501;SDS011;22396;51.070;4.974;2022-12-18T10:45:05;18.27;;;8.10;;
33501;SDS011;22396;51.070;4.974;2022-12-18T10:47:30;26.07;;;10.10;;
33501;SDS011;22396;51.070;4.974;2022-12-18T10:49:57;23.43;;;10.13;;
33501;SDS011;22396;51.070;4.974;2022-12-18T10:52:24;26.30;;;11.40;;
33501;SDS011;22396;51.070;4.974;2022-12-18T10:54:51;27.90;;;11.17;;
33501;SDS011;22396;51.070;4.974;2022-12-18T10:59:55;26.83;;;10.60;;
33501;SDS011;22396;51.070;4.974;2022-12-18T11:02:25;23.20;;;10.73;;
33501;SDS011;22396;51.070;4.974;2022-12-18T11:04:51;26.37;;;11.13;;
33501;SDS011;22396;51.070;4.974;2022-12-18T11:07:16;34.13;;;11.87;;
33501;SDS011;22396;51.070;4.974;2022-12-18T11:09:42;29.77;;;12.27;;
33501;SDS011;22396;51.070;4.974;2022-12-18T11:14:51;31.57;;;12.30;;
33501;SDS011;22396;51.070;4.974;2022-12-18T11:17:35;33.27;;;11.80;;
33501;SDS011;22396;51.070;4.974;2022-12-18T11:20:04;28.87;;;11.43;;
33501;SDS011;22396;51.070;4.974;2022-12-18T11:22:32;26.90;;;10.23;;
33501;SDS011;22396;51.070;4.974;2022-12-18T11:24:59;23.93;;;9.83;;
33501;SDS011;22396;51.070;4.974;2022-12-18T11:27:25;21.30;;;9.50;;
33501;SDS011;22396;51.070;4.974;2022-12-18T11:29:51;28.63;;;10.40;;
33501;SDS011;22396;51.070;4.974;2022-12-18T11:32:28;24.47;;;10.13;;
33501;SDS011;22396;51.070;4.974;2022-12-18T11:34:59;27.33;;;9.70;;
33501;SDS011;22396;51.070;4.974;2022-12-18T11:37:25;28.60;;;11.00;;
33501;SDS011;22396;51.070;4.974;2022-12-18T11:39:59;23.87;;;9.83;;
33501;SDS011;22396;51.070;4.974;2022-12-18T11:45:03;28.67;;;10.67;;
33501;SDS011;22396;51.070;4.974;2022-12-18T11:50:21;28.23;;;11.10;;
33501;SDS011;22396;51.070;4.974;2022-12-18T11:52:48;24.80;;;9.95;;
33501;SDS011;22396;51.070;4.974;2022-12-18T11:55:14;24.83;;;11.40;;
33501;SDS011;22396;51.070;4.974;2022-12-18T12:00:15;27.03;;;11.50;;
33501;SDS011;22396;51.070;4.974;2022-12-18T12:02:43;29.70;;;12.13;;
33501;SDS011;22396;51.070;4.974;2022-12-18T12:15:34;33.87;;;14.23;;
33501;SDS011;22396;51.070;4.974;2022-12-18T12:28:15;29.43;;;11.83;;
33501;SDS011;22396;51.070;4.974;2022-12-18T12:38:46;25.73;;;10.93;;
33501;SDS011;22396;51.070;4.974;2022-12-18T12:41:16;30.90;;;11.57;;
33501;SDS011;22396;51.070;4.974;2022-12-18T12:44:02;27.07;;;10.77;;
33501;SDS011;22396;51.070;4.974;2022-12-18T12:46:28;23.57;;;9.97;;
33501;SDS011;22396;51.070;4.974;2022-12-18T12:48:55;24.50;;;10.00;;
33501;SDS011;22396;51.070;4.974;2022-12-18T12:51:34;23.43;;;10.47;;
33501;SDS011;22396;51.070;4.974;2022-12-18T12:54:01;25.43;;;10.97;;
33501;SDS011;22396;51.070;4.974;2022-12-18T12:56:31;29.20;;;11.60;;
33501;SDS011;22396;51.070;4.974;2022-12-18T12:59:06;29.20;;;11.10;;
33501;SDS011;22396;51.070;4.974;2022-12-18T13:09:10;27.27;;;10.00;;
33501;SDS011;22396;51.070;4.974;2022-12-18T13:11:42;29.30;;;11.93;;
33501;SDS011;22396;51.070;4.974;2022-12-18T13:17:09;28.90;;;11.37;;
33501;SDS011;22396;51.070;4.974;2022-12-18T13:19:40;31.30;;;11.60;;
33501;SDS011;22396;51.070;4.974;2022-12-18T13:22:12;26.87;;;11.37;;
33501;SDS011;22396;51.070;4.974;2022-12-18T13:24:48;24.30;;;10.90;;
33501;SDS011;22396;51.070;4.974;2022-12-18T13:35:38;55.43;;;18.47;;
33501;SDS011;22396;51.070;4.974;2022-12-18T13:38:16;49.77;;;19.03;;
33501;SDS011;22396;51.070;4.974;2022-12-18T13:45:45;32.63;;;12.93;;
33501;SDS011;22396;51.070;4.974;2022-12-18T13:48:32;24.87;;;11.73;;
33501;SDS011;22396;51.070;4.974;2022-12-18T13:51:05;32.20;;;12.87;;
33501;SDS011;22396;51.070;4.974;2022-12-18T13:53:36;26.50;;;12.67;;
33501;SDS011;22396;51.070;4.974;2022-12-18T13:56:03;31.48;;;13.55;;
33501;SDS011;22396;51.070;4.974;2022-12-18T13:58:28;29.13;;;13.63;;
33501;SDS011;22396;51.070;4.974;2022-12-18T14:00:53;35.07;;;13.70;;
33501;SDS011;22396;51.070;4.974;2022-12-18T14:03:26;26.83;;;11.60;;
33501;SDS011;22396;51.070;4.974;2022-12-18T14:05:53;28.43;;;12.03;;
33501;SDS011;22396;51.070;4.974;2022-12-18T14:08:19;25.57;;;12.07;;
33501;SDS011;22396;51.070;4.974;2022-12-18T14:10:45;31.90;;;13.90;;
33501;SDS011;22396;51.070;4.974;2022-12-18T14:13:15;32.50;;;13.87;;
33501;SDS011;22396;51.070;4.974;2022-12-18T14:15:43;39.60;;;15.40;;
33501;SDS011;22396;51.070;4.974;2022-12-18T14:18:15;36.47;;;15.53;;
33501;SDS011;22396;51.070;4.974;2022-12-18T14:20:45;31.53;;;12.97;;
33501;SDS011;22396;51.070;4.974;2022-12-18T14:23:31;30.93;;;14.23;;
33501;SDS011;22396;51.070;4.974;2022-12-18T14:25:57;32.17;;;12.03;;
33501;SDS011;22396;51.070;4.974;2022-12-18T14:28:22;32.00;;;12.20;;
33501;SDS011;22396;51.070;4.974;2022-12-18T14:30:48;29.23;;;11.93;;
33501;SDS011;22396;51.070;4.974;2022-12-18T14:33:17;28.40;;;12.77;;
33501;SDS011;22396;51.070;4.974;2022-12-18T14:40:57;27.53;;;11.20;;
33501;SDS011;22396;51.070;4.974;2022-12-18T14:43:23;26.57;;;11.13;;
33501;SDS011;22396;51.070;4.974;2022-12-18T14:45:48;28.23;;;11.97;;
33501;SDS011;22396;51.070;4.974;2022-12-18T14:48:18;26.20;;;11.33;;
33501;SDS011;22396;51.070;4.974;2022-12-18T14:50:44;29.47;;;12.60;;
33501;SDS011;22396;51.070;4.974;2022-12-18T14:56:23;27.70;;;12.50;;
33501;SDS011;22396;51.070;4.974;2022-12-18T15:03:53;19.23;;;7.07;;
33501;SDS011;22396;51.070;4.974;2022-12-18T15:06:37;25.93;;;11.17;;
33501;SDS011;22396;51.070;4.974;2022-12-18T15:09:26;28.47;;;11.77;;
33501;SDS011;22396;51.070;4.974;2022-12-18T15:11:55;26.33;;;11.70;;
33501;SDS011;22396;51.070;4.974;2022-12-18T15:16:52;33.63;;;13.83;;
33501;SDS011;22396;51.070;4.974;2022-12-18T15:19:18;29.13;;;13.00;;
33501;SDS011;22396;51.070;4.974;2022-12-18T15:21:44;32.40;;;12.60;;
33501;SDS011;22396;51.070;4.974;2022-12-18T15:24:16;28.17;;;12.07;;
33501;SDS011;22396;51.070;4.974;2022-12-18T15:26:42;35.60;;;13.53;;
33501;SDS011;22396;51.070;4.974;2022-12-18T15:29:15;30.77;;;13.07;;
33501;SDS011;22396;51.070;4.974;2022-12-18T15:31:42;28.77;;;12.30;;
33501;SDS011;22396;51.070;4.974;2022-12-18T15:36:32;27.30;;;12.43;;
33501;SDS011;22396;51.070;4.974;2022-12-18T15:39:01;26.60;;;11.50;;
33501;SDS011;22396;51.070;4.974;2022-12-18T15:41:26;28.20;;;11.77;;
33501;SDS011;22396;51.070;4.974;2022-12-18T15:43:52;33.00;;;13.07;;
33501;SDS011;22396;51.070;4.974;2022-12-18T15:46:18;34.17;;;13.33;;
33501;SDS011;22396;51.070;4.974;2022-12-18T15:48:45;28.90;;;13.77;;
33501;SDS011;22396;51.070;4.974;2022-12-18T15:51:16;32.10;;;14.43;;
33501;SDS011;22396;51.070;4.974;2022-12-18T15:53:42;33.93;;;13.83;;
33501;SDS011;22396;51.070;4.974;2022-12-18T15:56:10;33.83;;;13.73;;
33501;SDS011;22396;51.070;4.974;2022-12-18T15:58:54;32.67;;;13.80;;
33501;SDS011;22396;51.070;4.974;2022-12-18T16:01:20;35.63;;;13.97;;
33501;SDS011;22396;51.070;4.974;2022-12-18T16:03:46;32.03;;;12.73;;
33501;SDS011;22396;51.070;4.974;2022-12-18T16:06:11;30.63;;;12.47;;
33501;SDS011;22396;51.070;4.974;2022-12-18T16:08:36;29.27;;;11.80;;
33501;SDS011;22396;51.070;4.974;2022-12-18T16:11:01;31.30;;;12.70;;
33501;SDS011;22396;51.070;4.974;2022-12-18T16:13:27;35.23;;;12.03;;
33501;SDS011;22396;51.070;4.974;2022-12-18T16:15:52;35.60;;;12.50;;
33501;SDS011;22396;51.070;4.974;2022-12-18T16:18:17;32.07;;;12.93;;
33501;SDS011;22396;51.070;4.974;2022-12-18T16:20:42;31.83;;;14.77;;
33501;SDS011;22396;51.070;4.974;2022-12-18T16:23:08;29.33;;;14.27;;
33501;SDS011;22396;51.070;4.974;2022-12-18T16:25:33;34.87;;;14.33;;
33501;SDS011;22396;51.070;4.974;2022-12-18T16:27:58;31.87;;;14.00;;
33501;SDS011;22396;51.070;4.974;2022-12-18T16:30:25;29.70;;;10.77;;
33501;SDS011;22396;51.070;4.974;2022-12-18T16:32:52;39.13;;;14.40;;